Accueil
METAR-TAF:

METAR-TAF

Aéroports :

Ndjamena, Tchad

Aéroport international de N'Djaména

latitude: 12-08N, longitude: 015-02E, altitude: 295 m

Observation

Le bulletin a été fait il y a 49 minutes, à 22:00 UTC
Vent 9 kt de sud/sud-ouest
Température 34°C
Humidité 36%
Pression 1006 hPa
Visibilité 10 km ou plus
pas de nuages en-dessous de 1500 mètres et pas de cumulonimbus.

METAR: FTTJ 242200Z 20009KT CAVOK 34/17 Q1006 NOSIG

Heure: 23:49 (22:49 UTC)

Prévision

Le bulletin a été fait il y a 5 heures et 49 minutes, à 17:00 UTC
Prévision valable du 24 à 18 UTC au 25 à 24 UTC
Vent 8 kt de sud-est
Visibilité: 6000 m
Temporairement
du 25 à 06 UTC au 25 à 11 UTC
Vent 10 kt de ouest/sud-ouest
Temporairement
du 25 à 12 UTC au 25 à 18 UTC
Vent 10 kt de nord-est

TAF: FTTJ 241700Z 2418/2524 14008KT 6000 NSC TEMPO 2506/2511 24010KT TEMPO 2512/2518 04010KT

Observations et prévisions météorologiques de plus de 4000 aéroports (messages METAR et TAF).

Les stations disponibles sont représentées par des disques jaunes et rouges sur la carte.

Passer la souris dessus pour voir le nom de la station.

Cliquer dessus pour voir les observations et prévisions météorologiques.

Pour changer de carte: cliquez sur les boutons verts avec une croix noire pour zoomer, sur le bouton vert avec un tiret pour effectuer un zoom arrière, ou sur les flèches vertes pour les cartes adjacentes.


METAR-TAF: